Aviation Digital Data Service (ADDS)

Output produced by METARs form (1224 UTC 16 July 2019)
found at http://www.aviationweather.gov/metar/data/
 
GQPA 161200Z 18012KT 5000 BLDU NSC 35/11 Q1014
GQPP 161200Z 03006KT 7000 NSC 29/18 Q1011 NOSIG
TAF GQPP 161100Z 1612/1712 35012KT 7000 NSC 
     BECMG 1707/1709 24010KT